createdAt,value
2022-10-18T00:02:58.062Z,105.03
2022-10-18T00:07:59.835Z,39.35
2022-10-18T00:13:01.243Z,39.45
2022-10-18T00:18:03.143Z,72.95
2022-10-18T00:23:04.572Z,44.28
2022-10-18T00:28:06.047Z,52.53
2022-10-18T00:33:07.475Z,49.97
2022-10-18T00:38:08.854Z,163.55
2022-10-18T00:43:15.897Z,123.78
2022-10-18T00:48:20.773Z,91.05
2022-10-18T00:53:23.633Z,62.13
2022-10-18T00:58:25.400Z,59.40
2022-10-18T01:03:26.873Z,56.38
2022-10-18T01:08:44.904Z,56.85
2022-10-18T01:14:01.840Z,54.83
2022-10-18T01:19:12.161Z,36.08
2022-10-18T01:24:36.824Z,82.70
2022-10-18T01:29:53.406Z,74.57
2022-10-18T01:40:03.588Z,47.13
2022-10-18T01:45:08.063Z,41.10
2022-10-18T01:50:09.723Z,42.80
2022-10-18T01:55:11.246Z,37.80
2022-10-18T02:00:17.237Z,44.08
2022-10-18T02:05:33.189Z,39.45
2022-10-18T02:10:38.334Z,81.65
2022-10-18T02:15:43.258Z,38.42
2022-10-18T02:20:45.541Z,36.50
2022-10-18T02:25:47.161Z,33.05
2022-10-18T02:31:30.369Z,31.55
2022-10-18T02:36:38.630Z,28.08
2022-10-18T02:41:40.729Z,32.70
2022-10-18T02:46:42.948Z,35.92
2022-10-18T02:51:44.465Z,20.65
2022-10-18T02:56:45.904Z,18.35
2022-10-18T03:01:47.375Z,22.77
2022-10-18T03:06:48.851Z,17.77
2022-10-18T03:11:50.254Z,14.90
2022-10-18T03:16:52.699Z,18.08
2022-10-18T03:21:54.195Z,18.95
2022-10-18T03:26:55.805Z,22.85
2022-10-18T03:31:57.225Z,23.70
2022-10-18T03:37:02.060Z,31.45
2022-10-18T03:42:06.228Z,31.20
2022-10-18T03:47:07.669Z,28.77
2022-10-18T03:52:09.132Z,32.92
2022-10-18T03:57:10.556Z,25.35
2022-10-18T04:02:12.091Z,26.23
2022-10-18T04:07:13.515Z,24.92
2022-10-18T04:12:14.926Z,28.33
2022-10-18T04:17:16.310Z,26.65
2022-10-18T04:22:18.055Z,29.17
2022-10-18T04:27:19.527Z,20.33
2022-10-18T04:32:20.951Z,25.13
2022-10-18T04:37:22.401Z,19.70
2022-10-18T04:42:24.483Z,21.20
2022-10-18T04:47:25.916Z,16.60
2022-10-18T04:52:27.372Z,19.05
2022-10-18T04:57:28.913Z,18.10
2022-10-18T05:02:30.798Z,22.67
2022-10-18T05:07:32.704Z,20.80
2022-10-18T05:12:34.596Z,25.40
2022-10-18T05:17:36.632Z,21.95
2022-10-18T05:22:38.211Z,35.15
2022-10-18T05:27:39.610Z,19.80
2022-10-18T05:32:41.102Z,20.60
2022-10-18T05:37:42.568Z,28.98
2022-10-18T05:42:43.984Z,56.38
2022-10-18T05:47:45.379Z,27.08
2022-10-18T05:52:46.784Z,15.93
2022-10-18T05:57:51.792Z,22.52
2022-10-18T06:02:55.268Z,29.08
2022-10-18T06:07:59.583Z,16.73
2022-10-18T06:13:01.042Z,21.00
2022-10-18T06:18:02.466Z,22.67
2022-10-18T06:23:03.938Z,58.10
2022-10-18T06:28:07.945Z,42.25
2022-10-18T06:33:14.273Z,58.40
2022-10-18T06:38:15.713Z,96.40
2022-10-18T06:43:21.096Z,68.22
2022-10-18T06:48:23.659Z,51.03
2022-10-18T06:53:26.589Z,35.55
2022-10-18T06:58:29.046Z,32.72
2022-10-18T07:03:30.539Z,29.75
2022-10-18T07:08:32.461Z,21.63
2022-10-18T07:13:34.839Z,30.83
2022-10-18T07:18:38.654Z,25.60
2022-10-18T07:23:43.692Z,58.95
2022-10-18T07:28:47.708Z,29.65
2022-10-18T07:33:49.275Z,31.33
2022-10-18T07:38:52.293Z,21.20
2022-10-18T07:43:53.748Z,19.33
2022-10-18T07:48:55.922Z,24.98
2022-10-18T07:53:57.313Z,16.73
2022-10-18T07:58:58.789Z,17.38
2022-10-18T08:04:06.062Z,14.32
2022-10-18T08:09:08.501Z,16.13
2022-10-18T08:14:09.945Z,15.05
2022-10-18T08:19:11.450Z,9.98
2022-10-18T08:24:12.908Z,17.27
2022-10-18T08:29:24.203Z,16.58
2022-10-18T08:34:27.311Z,20.65
2022-10-18T08:39:29.042Z,24.52
2022-10-18T08:44:32.642Z,21.92
2022-10-18T08:49:51.062Z,20.10
2022-10-18T08:55:00.384Z,19.77
2022-10-18T09:00:14.689Z,23.45
2022-10-18T09:05:22.896Z,21.05
2022-10-18T09:10:49.248Z,29.85
2022-10-18T09:15:59.136Z,21.38
2022-10-18T09:21:17.820Z,19.65
2022-10-18T09:26:23.359Z,25.52
2022-10-18T09:31:42.319Z,19.23
2022-10-18T09:36:45.218Z,13.73
2022-10-18T09:42:26.878Z,9.25
2022-10-18T09:47:45.406Z,10.98
2022-10-18T09:52:55.506Z,15.20
2022-10-18T09:58:01.666Z,11.30
2022-10-18T10:03:11.070Z,6.30
2022-10-18T10:08:12.661Z,12.88
2022-10-18T10:13:22.904Z,3.83
2022-10-18T10:18:31.276Z,3.30
2022-10-18T10:23:39.252Z,5.55
2022-10-18T10:28:48.595Z,8.32
2022-10-18T10:34:19.499Z,7.38
2022-10-18T10:39:24.001Z,8.13
2022-10-18T10:44:29.924Z,7.00
2022-10-18T10:49:51.635Z,4.20
2022-10-18T10:55:05.450Z,7.10
2022-10-18T11:00:36.671Z,5.43
2022-10-18T11:06:05.291Z,6.90
2022-10-18T11:11:27.745Z,10.77
2022-10-18T11:16:50.731Z,6.25
2022-10-18T11:21:53.483Z,6.68
2022-10-18T11:27:10.168Z,6.22
2022-10-18T11:33:02.831Z,6.55
2022-10-18T11:38:14.720Z,7.57
2022-10-18T11:43:44.303Z,5.20
2022-10-18T11:49:07.368Z,5.80
2022-10-18T11:54:08.742Z,7.82
2022-10-18T11:59:38.504Z,7.25
2022-10-18T12:04:58.457Z,9.55
2022-10-18T12:10:09.888Z,5.03
2022-10-18T12:15:23.702Z,8.48
2022-10-18T12:20:31.273Z,5.43
2022-10-18T12:25:37.065Z,4.22
2022-10-18T12:35:58.711Z,5.15
2022-10-18T12:41:00.949Z,6.30
2022-10-18T12:46:13.305Z,5.25
2022-10-18T12:51:21.839Z,8.30
2022-10-18T12:56:29.297Z,6.13
2022-10-18T13:01:50.790Z,7.55
2022-10-18T13:06:58.899Z,1.33
2022-10-18T13:12:09.526Z,5.75
2022-10-18T13:17:16.875Z,4.20
2022-10-18T13:22:54.214Z,5.10
2022-10-18T13:28:14.038Z,8.68
2022-10-18T13:33:30.563Z,4.90
2022-10-18T13:39:04.417Z,1.85
2022-10-18T13:44:23.044Z,1.67
2022-10-18T13:49:40.922Z,3.30
2022-10-18T13:55:04.147Z,5.75
2022-10-18T14:00:44.854Z,2.38
2022-10-18T14:06:11.613Z,3.78
2022-10-18T14:11:16.101Z,4.75
2022-10-18T14:16:39.310Z,3.50
2022-10-18T14:21:47.725Z,1.40
2022-10-18T14:27:15.834Z,1.25
2022-10-18T14:32:29.697Z,3.67
2022-10-18T14:37:36.386Z,2.75
2022-10-18T14:42:47.972Z,4.32
2022-10-18T14:47:49.508Z,5.53
2022-10-18T14:52:51.071Z,5.47
2022-10-18T14:57:52.730Z,7.35
2022-10-18T15:02:54.413Z,3.35
2022-10-18T15:07:59.561Z,0.70
2022-10-18T15:13:09.901Z,3.25
2022-10-18T15:18:26.208Z,1.90
2022-10-18T15:23:31.313Z,2.67
2022-10-18T15:28:36.533Z,9.52
2022-10-18T15:33:38.004Z,2.10
2022-10-18T15:38:39.593Z,5.28
2022-10-18T15:43:41.005Z,5.35
2022-10-18T15:48:42.596Z,4.32
2022-10-18T15:53:51.208Z,6.10
2022-10-18T15:58:53.767Z,5.78
2022-10-18T16:08:56.636Z,3.72
2022-10-18T16:14:00.423Z,7.13
2022-10-18T16:19:02.613Z,9.07
2022-10-18T16:24:05.173Z,10.63
2022-10-18T16:29:07.623Z,6.15
2022-10-18T16:34:11.225Z,5.57
2022-10-18T16:39:15.816Z,3.78
2022-10-18T16:44:19.075Z,7.05
2022-10-18T16:49:24.086Z,11.88
2022-10-18T16:54:26.040Z,4.20
2022-10-18T16:59:29.944Z,5.15
2022-10-18T17:04:31.441Z,9.00
2022-10-18T17:09:35.008Z,9.35
2022-10-18T17:14:36.933Z,6.25
2022-10-18T17:19:38.366Z,9.52
2022-10-18T17:24:39.740Z,6.03
2022-10-18T17:29:41.217Z,2.78
2022-10-18T17:34:42.664Z,5.38
2022-10-18T17:39:44.221Z,6.32
2022-10-18T17:44:46.176Z,8.02
2022-10-18T17:49:47.821Z,3.45
2022-10-18T17:54:49.293Z,8.23
2022-10-18T17:59:50.685Z,3.67
2022-10-18T18:04:54.481Z,5.50
2022-10-18T18:09:56.048Z,7.75
2022-10-18T18:14:57.480Z,3.10
2022-10-18T18:19:58.884Z,7.70
2022-10-18T18:25:00.289Z,6.60
2022-10-18T18:30:01.677Z,7.60
2022-10-18T18:35:03.484Z,7.10
2022-10-18T18:40:05.368Z,5.90
2022-10-18T18:45:07.144Z,10.23
2022-10-18T18:50:12.800Z,7.45
2022-10-18T18:55:17.411Z,7.17
2022-10-18T19:00:21.740Z,6.15
2022-10-18T19:05:28.676Z,6.97
2022-10-18T19:10:30.696Z,6.75
2022-10-18T19:15:32.259Z,7.88
2022-10-18T19:20:36.823Z,7.05
2022-10-18T19:25:39.092Z,6.03
2022-10-18T19:30:49.798Z,8.80
2022-10-18T19:35:54.603Z,12.88
2022-10-18T19:40:57.490Z,8.88
2022-10-18T19:46:06.543Z,8.45
2022-10-18T19:51:09.613Z,6.78
2022-10-18T19:56:18.514Z,7.25
2022-10-18T20:01:20.758Z,9.57
2022-10-18T20:06:27.053Z,7.10
2022-10-18T20:11:35.489Z,4.57
2022-10-18T20:16:42.672Z,5.35
2022-10-18T20:21:44.292Z,12.75
2022-10-18T20:26:49.064Z,8.43
2022-10-18T20:31:50.735Z,7.10
2022-10-18T20:36:55.533Z,16.10
2022-10-18T20:41:58.742Z,12.02
2022-10-18T20:47:07.655Z,12.63
2022-10-18T20:52:09.433Z,10.65
2022-10-18T20:57:11.875Z,4.13
2022-10-18T21:02:13.988Z,17.40
2022-10-18T21:07:17.064Z,5.10
2022-10-18T21:12:18.805Z,2.45
2022-10-18T21:17:22.073Z,6.07
2022-10-18T21:22:25.939Z,9.90
2022-10-18T21:27:27.752Z,6.53
2022-10-18T21:32:33.444Z,6.10
2022-10-18T21:37:35.131Z,6.20
2022-10-18T21:42:36.733Z,8.98
2022-10-18T21:47:39.257Z,8.20
2022-10-18T21:52:40.761Z,6.28
2022-10-18T21:57:50.641Z,8.10
2022-10-18T22:03:09.564Z,5.95
2022-10-18T22:08:11.091Z,8.82
2022-10-18T22:13:12.611Z,8.52
2022-10-18T22:18:14.146Z,6.60
2022-10-18T22:23:16.885Z,5.82
2022-10-18T22:28:18.797Z,6.15
2022-10-18T22:33:21.309Z,6.30
2022-10-18T22:38:23.190Z,1.83
2022-10-18T22:43:24.644Z,3.88
2022-10-18T22:48:26.243Z,1.95
2022-10-18T22:53:28.045Z,3.05
2022-10-18T22:58:30.033Z,8.75
2022-10-18T23:03:33.049Z,6.90
2022-10-18T23:08:34.732Z,6.18
2022-10-18T23:13:42.532Z,6.00
2022-10-18T23:18:54.813Z,5.57
2022-10-18T23:23:57.203Z,6.43
2022-10-18T23:29:00.743Z,9.25
2022-10-18T23:34:04.928Z,3.33
2022-10-18T23:39:15.009Z,5.75
2022-10-18T23:44:16.666Z,4.03
2022-10-18T23:49:18.796Z,5.25
2022-10-18T23:54:23.423Z,3.95
2022-10-18T23:59:26.162Z,2.22
